Terminal Aerodrome Forecast
Issued by NWS

Home | Current Version | Previous Version | Text Only | Print | Product List | Glossary On
Versions: 1 2 3 4 5 6 7 8 9 10 11 12 13 14 15 16 17 18 19 20 21 22 23 24 25 26 27 28 29 30 31 32
000
FTUS45 KSLC 020032 AAA
TAFBCE
TAF AMD
KBCE 020032Z 0201/0224 07009KT P6SM -SHRA VCTS SCT080CB BKN100
      TEMPO 0201/0202 VRB20G35KT 5SM TSRA BKN070CB
     FM020200 30008KT P6SM SCT100 BKN150
     FM021800 33009KT P6SM SCT120=

USA.gov is the U.S. government's official web portal to all federal, state and local government web resources and services.